sensor_id;sensor_type;location;lat;lon;timestamp;pressure;altitude;pressure_sealevel;temperature;humidity
13869;BME280;7004;48.206;16.402;2023-03-13T00:01:26;99643.97;;;8.64;58.76
13869;BME280;7004;48.206;16.402;2023-03-13T00:03:53;99641.38;;;8.79;58.61
13869;BME280;7004;48.206;16.402;2023-03-13T00:06:23;99637.34;;;9.03;58.13
13869;BME280;7004;48.206;16.402;2023-03-13T00:08:51;99631.16;;;8.88;58.33
13869;BME280;7004;48.206;16.402;2023-03-13T00:11:17;99626.69;;;9.05;58.42
13869;BME280;7004;48.206;16.402;2023-03-13T00:13:47;99636.66;;;9.30;58.39
13869;BME280;7004;48.206;16.402;2023-03-13T00:16:15;99627.13;;;8.97;59.19
13869;BME280;7004;48.206;16.402;2023-03-13T00:18:50;99616.81;;;9.08;59.28
13869;BME280;7004;48.206;16.402;2023-03-13T00:21:19;99613.28;;;8.93;60.26
13869;BME280;7004;48.206;16.402;2023-03-13T00:23:46;99605.84;;;9.00;60.40
13869;BME280;7004;48.206;16.402;2023-03-13T00:26:19;99611.97;;;8.70;61.75
13869;BME280;7004;48.206;16.402;2023-03-13T00:28:46;99603.56;;;8.80;61.41
13869;BME280;7004;48.206;16.402;2023-03-13T00:31:22;99607.28;;;8.75;61.25
13869;BME280;7004;48.206;16.402;2023-03-13T00:33:51;99592.25;;;8.78;61.56
13869;BME280;7004;48.206;16.402;2023-03-13T00:36:24;99593.47;;;8.72;61.40
13869;BME280;7004;48.206;16.402;2023-03-13T00:38:52;99590.88;;;8.56;61.74
13869;BME280;7004;48.206;16.402;2023-03-13T00:41:25;99592.28;;;8.62;61.18
13869;BME280;7004;48.206;16.402;2023-03-13T00:43:52;99587.09;;;8.60;61.03
13869;BME280;7004;48.206;16.402;2023-03-13T00:46:21;99581.69;;;8.47;61.89
13869;BME280;7004;48.206;16.402;2023-03-13T00:48:48;99576.09;;;8.53;61.14
13869;BME280;7004;48.206;16.402;2023-03-13T00:51:16;99575.34;;;8.66;60.88
13869;BME280;7004;48.206;16.402;2023-03-13T00:53:43;99583.22;;;8.51;61.01
13869;BME280;7004;48.206;16.402;2023-03-13T00:56:12;99578.81;;;8.66;60.42
13869;BME280;7004;48.206;16.402;2023-03-13T00:58:41;99578.41;;;8.58;60.03
13869;BME280;7004;48.206;16.402;2023-03-13T01:01:20;99582.84;;;8.58;60.05
13869;BME280;7004;48.206;16.402;2023-03-13T01:03:51;99578.94;;;8.65;59.99
13869;BME280;7004;48.206;16.402;2023-03-13T01:06:22;99579.41;;;8.41;60.60
13869;BME280;7004;48.206;16.402;2023-03-13T01:08:50;99568.56;;;8.62;60.35
13869;BME280;7004;48.206;16.402;2023-03-13T01:11:21;99571.25;;;8.46;61.00
13869;BME280;7004;48.206;16.402;2023-03-13T01:13:48;99573.13;;;8.74;59.98
13869;BME280;7004;48.206;16.402;2023-03-13T01:16:18;99567.25;;;8.69;60.40
13869;BME280;7004;48.206;16.402;2023-03-13T01:18:49;99563.53;;;8.73;60.05
13869;BME280;7004;48.206;16.402;2023-03-13T01:21:17;99553.44;;;8.65;60.78
13869;BME280;7004;48.206;16.402;2023-03-13T01:23:46;99548.34;;;8.62;60.77
13869;BME280;7004;48.206;16.402;2023-03-13T01:26:12;99549.38;;;8.60;60.93
13869;BME280;7004;48.206;16.402;2023-03-13T01:28:38;99549.66;;;8.39;61.11
13869;BME280;7004;48.206;16.402;2023-03-13T01:31:30;99545.13;;;8.57;61.32
13869;BME280;7004;48.206;16.402;2023-03-13T01:34:00;99544.53;;;8.52;61.53
13869;BME280;7004;48.206;16.402;2023-03-13T01:36:27;99544.88;;;8.62;61.57
13869;BME280;7004;48.206;16.402;2023-03-13T01:38:57;99543.88;;;8.48;62.01
13869;BME280;7004;48.206;16.402;2023-03-13T01:41:27;99546.59;;;8.47;62.13
13869;BME280;7004;48.206;16.402;2023-03-13T01:43:54;99545.50;;;8.51;62.58
13869;BME280;7004;48.206;16.402;2023-03-13T01:46:22;99541.97;;;8.50;61.60
13869;BME280;7004;48.206;16.402;2023-03-13T01:49:13;99541.91;;;8.52;61.04
13869;BME280;7004;48.206;16.402;2023-03-13T01:57:24;99542.97;;;8.18;61.08
13869;BME280;7004;48.206;16.402;2023-03-13T01:59:57;99544.97;;;8.28;61.16
13869;BME280;7004;48.206;16.402;2023-03-13T02:02:27;99543.38;;;8.42;60.69
13869;BME280;7004;48.206;16.402;2023-03-13T02:04:58;99545.69;;;8.00;61.83
13869;BME280;7004;48.206;16.402;2023-03-13T02:08:04;99541.66;;;8.09;61.76
13869;BME280;7004;48.206;16.402;2023-03-13T02:10:33;99538.19;;;8.08;62.42
13869;BME280;7004;48.206;16.402;2023-03-13T02:13:02;99543.03;;;8.00;62.60
13869;BME280;7004;48.206;16.402;2023-03-13T02:15:29;99531.56;;;8.01;62.60
13869;BME280;7004;48.206;16.402;2023-03-13T02:17:57;99544.31;;;7.93;62.86
13869;BME280;7004;48.206;16.402;2023-03-13T02:20:23;99536.34;;;7.79;64.00
13869;BME280;7004;48.206;16.402;2023-03-13T02:28:14;99537.78;;;7.69;64.26
13869;BME280;7004;48.206;16.402;2023-03-13T02:30:43;99527.84;;;7.90;63.79
13869;BME280;7004;48.206;16.402;2023-03-13T02:33:14;99534.13;;;7.71;65.17
13869;BME280;7004;48.206;16.402;2023-03-13T02:35:43;99532.28;;;7.73;65.77
13869;BME280;7004;48.206;16.402;2023-03-13T02:38:14;99534.19;;;8.01;64.52
13869;BME280;7004;48.206;16.402;2023-03-13T02:40:46;99532.16;;;8.06;64.53
13869;BME280;7004;48.206;16.402;2023-03-13T02:43:32;99530.47;;;7.90;65.35
13869;BME280;7004;48.206;16.402;2023-03-13T02:48:53;99535.81;;;7.88;65.33
13869;BME280;7004;48.206;16.402;2023-03-13T02:51:39;99544.66;;;7.87;66.02
13869;BME280;7004;48.206;16.402;2023-03-13T02:54:16;99549.19;;;7.52;68.00
13869;BME280;7004;48.206;16.402;2023-03-13T02:56:46;99549.81;;;7.57;68.23
13869;BME280;7004;48.206;16.402;2023-03-13T02:59:14;99560.72;;;7.49;68.28
13869;BME280;7004;48.206;16.402;2023-03-13T03:01:40;99556.50;;;7.62;68.26
13869;BME280;7004;48.206;16.402;2023-03-13T03:04:07;99540.53;;;7.50;68.73
13869;BME280;7004;48.206;16.402;2023-03-13T03:06:33;99552.34;;;7.58;68.07
13869;BME280;7004;48.206;16.402;2023-03-13T03:08:59;99545.72;;;7.51;68.60
13869;BME280;7004;48.206;16.402;2023-03-13T03:11:27;99545.84;;;7.65;68.63
13869;BME280;7004;48.206;16.402;2023-03-13T03:13:53;99544.28;;;7.61;68.04
13869;BME280;7004;48.206;16.402;2023-03-13T03:16:19;99549.03;;;7.55;70.07
13869;BME280;7004;48.206;16.402;2023-03-13T03:18:47;99550.81;;;7.54;68.50
13869;BME280;7004;48.206;16.402;2023-03-13T03:21:13;99551.19;;;7.80;68.35
13869;BME280;7004;48.206;16.402;2023-03-13T03:23:40;99548.88;;;7.58;69.26
13869;BME280;7004;48.206;16.402;2023-03-13T03:26:08;99548.81;;;7.75;68.77
13869;BME280;7004;48.206;16.402;2023-03-13T03:28:34;99552.34;;;7.42;69.14
13869;BME280;7004;48.206;16.402;2023-03-13T03:31:09;99551.75;;;7.20;70.01
13869;BME280;7004;48.206;16.402;2023-03-13T03:33:36;99554.53;;;7.34;69.50
13869;BME280;7004;48.206;16.402;2023-03-13T03:36:07;99561.66;;;7.48;69.19
13869;BME280;7004;48.206;16.402;2023-03-13T03:38:34;99555.06;;;7.23;69.64
13869;BME280;7004;48.206;16.402;2023-03-13T03:41:00;99556.53;;;7.29;69.88
13869;BME280;7004;48.206;16.402;2023-03-13T03:43:26;99555.56;;;7.14;70.14
13869;BME280;7004;48.206;16.402;2023-03-13T03:45:52;99561.72;;;7.31;69.17
13869;BME280;7004;48.206;16.402;2023-03-13T03:48:19;99561.59;;;7.16;69.49
13869;BME280;7004;48.206;16.402;2023-03-13T03:50:45;99557.09;;;7.18;69.91
13869;BME280;7004;48.206;16.402;2023-03-13T03:53:11;99559.53;;;7.06;71.00
13869;BME280;7004;48.206;16.402;2023-03-13T03:55:37;99555.72;;;6.94;71.27
13869;BME280;7004;48.206;16.402;2023-03-13T03:58:03;99560.22;;;6.92;70.73
13869;BME280;7004;48.206;16.402;2023-03-13T04:00:30;99564.28;;;7.15;70.82
13869;BME280;7004;48.206;16.402;2023-03-13T04:02:56;99559.44;;;7.07;70.90
13869;BME280;7004;48.206;16.402;2023-03-13T04:05:23;99564.72;;;7.23;70.49
13869;BME280;7004;48.206;16.402;2023-03-13T04:07:49;99556.78;;;7.07;71.64
13869;BME280;7004;48.206;16.402;2023-03-13T04:10:16;99565.41;;;7.11;71.41
13869;BME280;7004;48.206;16.402;2023-03-13T04:12:42;99568.22;;;7.23;71.34
13869;BME280;7004;48.206;16.402;2023-03-13T04:15:10;99568.31;;;7.22;72.29
13869;BME280;7004;48.206;16.402;2023-03-13T04:17:37;99555.78;;;7.10;72.35
13869;BME280;7004;48.206;16.402;2023-03-13T04:20:04;99557.75;;;7.06;72.68
13869;BME280;7004;48.206;16.402;2023-03-13T04:22:31;99546.78;;;6.98;73.27
13869;BME280;7004;48.206;16.402;2023-03-13T04:24:58;99543.38;;;6.96;72.89
13869;BME280;7004;48.206;16.402;2023-03-13T04:27:24;99553.31;;;7.07;73.00
13869;BME280;7004;48.206;16.402;2023-03-13T04:29:50;99550.72;;;6.89;73.47
13869;BME280;7004;48.206;16.402;2023-03-13T04:32:17;99541.38;;;6.84;74.19
13869;BME280;7004;48.206;16.402;2023-03-13T04:34:43;99523.97;;;7.81;66.99
13869;BME280;7004;48.206;16.402;2023-03-13T04:37:09;99525.09;;;7.59;68.12
13869;BME280;7004;48.206;16.402;2023-03-13T04:39:35;99527.56;;;7.62;69.05
13869;BME280;7004;48.206;16.402;2023-03-13T04:42:01;99524.19;;;7.60;69.04
13869;BME280;7004;48.206;16.402;2023-03-13T04:44:28;99534.50;;;7.32;70.66
13869;BME280;7004;48.206;16.402;2023-03-13T04:46:56;99524.91;;;7.47;68.93
13869;BME280;7004;48.206;16.402;2023-03-13T04:49:23;99514.69;;;8.05;65.02
13869;BME280;7004;48.206;16.402;2023-03-13T04:51:49;99511.19;;;8.21;63.52
13869;BME280;7004;48.206;16.402;2023-03-13T04:54:15;99505.22;;;8.49;60.81
13869;BME280;7004;48.206;16.402;2023-03-13T04:56:42;99506.44;;;8.58;60.33
13869;BME280;7004;48.206;16.402;2023-03-13T04:59:10;99504.25;;;8.80;59.17
13869;BME280;7004;48.206;16.402;2023-03-13T05:01:37;99510.56;;;8.78;58.90
13869;BME280;7004;48.206;16.402;2023-03-13T05:04:04;99501.16;;;8.88;58.68
13869;BME280;7004;48.206;16.402;2023-03-13T05:06:31;99499.28;;;8.90;58.58
13869;BME280;7004;48.206;16.402;2023-03-13T05:08:57;99491.84;;;8.82;58.65
13869;BME280;7004;48.206;16.402;2023-03-13T05:11:23;99493.53;;;8.83;58.55
13869;BME280;7004;48.206;16.402;2023-03-13T05:13:49;99495.97;;;8.86;58.91
13869;BME280;7004;48.206;16.402;2023-03-13T05:16:15;99493.31;;;8.86;58.37
13869;BME280;7004;48.206;16.402;2023-03-13T05:18:42;99488.69;;;8.75;58.44
13869;BME280;7004;48.206;16.402;2023-03-13T05:21:08;99481.00;;;8.87;58.13
13869;BME280;7004;48.206;16.402;2023-03-13T05:23:36;99494.16;;;8.87;58.80
13869;BME280;7004;48.206;16.402;2023-03-13T05:26:03;99500.50;;;8.99;57.76
13869;BME280;7004;48.206;16.402;2023-03-13T05:28:29;99493.44;;;8.99;58.12
13869;BME280;7004;48.206;16.402;2023-03-13T05:30:56;99501.47;;;8.98;57.90
13869;BME280;7004;48.206;16.402;2023-03-13T05:33:22;99495.81;;;9.04;58.26
13869;BME280;7004;48.206;16.402;2023-03-13T05:35:48;99490.41;;;8.91;58.49
13869;BME280;7004;48.206;16.402;2023-03-13T05:38:14;99485.22;;;8.89;58.05
13869;BME280;7004;48.206;16.402;2023-03-13T05:40:40;99493.06;;;8.91;58.60
13869;BME280;7004;48.206;16.402;2023-03-13T05:43:07;99491.94;;;8.95;58.88
13869;BME280;7004;48.206;16.402;2023-03-13T05:45:33;99490.50;;;8.89;59.40
13869;BME280;7004;48.206;16.402;2023-03-13T05:47:59;99486.38;;;8.85;59.55
13869;BME280;7004;48.206;16.402;2023-03-13T05:50:25;99491.53;;;8.87;59.53
13869;BME280;7004;48.206;16.402;2023-03-13T05:52:52;99486.38;;;8.85;59.80
13869;BME280;7004;48.206;16.402;2023-03-13T05:55:19;99488.75;;;8.90;59.50
13869;BME280;7004;48.206;16.402;2023-03-13T05:57:47;99479.00;;;8.76;60.18
13869;BME280;7004;48.206;16.402;2023-03-13T06:00:15;99473.09;;;8.87;60.95
13869;BME280;7004;48.206;16.402;2023-03-13T06:02:42;99479.50;;;8.97;60.37
13869;BME280;7004;48.206;16.402;2023-03-13T06:05:09;99478.38;;;9.01;59.95
13869;BME280;7004;48.206;16.402;2023-03-13T06:07:36;99463.97;;;9.07;60.22
13869;BME280;7004;48.206;16.402;2023-03-13T06:10:03;99461.81;;;8.99;59.58
13869;BME280;7004;48.206;16.402;2023-03-13T06:12:30;99453.69;;;9.02;60.26
13869;BME280;7004;48.206;16.402;2023-03-13T06:14:57;99460.38;;;9.22;58.53
13869;BME280;7004;48.206;16.402;2023-03-13T06:17:23;99459.16;;;8.99;60.62
13869;BME280;7004;48.206;16.402;2023-03-13T06:19:50;99463.00;;;9.08;60.23
13869;BME280;7004;48.206;16.402;2023-03-13T06:22:16;99461.91;;;9.26;59.67
13869;BME280;7004;48.206;16.402;2023-03-13T06:24:42;99455.59;;;9.14;59.95
13869;BME280;7004;48.206;16.402;2023-03-13T06:27:15;99463.03;;;8.93;60.09
13869;BME280;7004;48.206;16.402;2023-03-13T06:29:41;99464.59;;;8.82;61.44
13869;BME280;7004;48.206;16.402;2023-03-13T06:32:07;99457.28;;;9.15;59.16
13869;BME280;7004;48.206;16.402;2023-03-13T06:34:33;99461.34;;;9.21;58.65
13869;BME280;7004;48.206;16.402;2023-03-13T06:37:00;99464.25;;;9.02;59.61
13869;BME280;7004;48.206;16.402;2023-03-13T06:39:26;99450.41;;;9.13;59.55
13869;BME280;7004;48.206;16.402;2023-03-13T06:41:53;99452.47;;;9.08;61.17
13869;BME280;7004;48.206;16.402;2023-03-13T06:44:19;99454.06;;;9.39;59.94
13869;BME280;7004;48.206;16.402;2023-03-13T06:46:46;99451.81;;;9.33;60.85
13869;BME280;7004;48.206;16.402;2023-03-13T06:49:12;99445.59;;;9.19;62.15
13869;BME280;7004;48.206;16.402;2023-03-13T06:51:38;99446.25;;;9.23;62.78
13869;BME280;7004;48.206;16.402;2023-03-13T06:54:04;99448.69;;;9.40;60.41
13869;BME280;7004;48.206;16.402;2023-03-13T06:56:30;99444.88;;;9.59;59.93
13869;BME280;7004;48.206;16.402;2023-03-13T06:58:57;99440.06;;;9.66;59.75
13869;BME280;7004;48.206;16.402;2023-03-13T07:01:24;99435.16;;;9.59;62.19
13869;BME280;7004;48.206;16.402;2023-03-13T07:03:50;99441.66;;;9.95;58.69
13869;BME280;7004;48.206;16.402;2023-03-13T07:06:17;99438.22;;;10.07;58.78
13869;BME280;7004;48.206;16.402;2023-03-13T07:08:44;99436.16;;;10.25;57.24
13869;BME280;7004;48.206;16.402;2023-03-13T07:11:12;99439.09;;;10.61;56.82
13869;BME280;7004;48.206;16.402;2023-03-13T07:13:39;99432.00;;;11.12;52.97
13869;BME280;7004;48.206;16.402;2023-03-13T07:16:09;99421.97;;;11.54;51.42
13869;BME280;7004;48.206;16.402;2023-03-13T07:18:36;99411.22;;;11.69;50.76
13869;BME280;7004;48.206;16.402;2023-03-13T07:21:04;99409.75;;;12.13;50.06
13869;BME280;7004;48.206;16.402;2023-03-13T07:23:31;99411.25;;;11.56;50.09
13869;BME280;7004;48.206;16.402;2023-03-13T07:26:07;99413.84;;;10.82;51.72
13869;BME280;7004;48.206;16.402;2023-03-13T07:28:34;99413.81;;;11.21;50.53
13869;BME280;7004;48.206;16.402;2023-03-13T07:31:15;99404.41;;;10.91;51.15
13869;BME280;7004;48.206;16.402;2023-03-13T07:33:42;99398.34;;;11.51;49.96
13869;BME280;7004;48.206;16.402;2023-03-13T07:36:11;99404.09;;;11.45;49.45
13869;BME280;7004;48.206;16.402;2023-03-13T07:38:38;99392.97;;;11.03;50.61
13869;BME280;7004;48.206;16.402;2023-03-13T07:41:05;99387.91;;;11.98;48.65
13869;BME280;7004;48.206;16.402;2023-03-13T07:43:31;99387.66;;;12.36;47.11
13869;BME280;7004;48.206;16.402;2023-03-13T07:46:03;99382.03;;;12.06;48.00
13869;BME280;7004;48.206;16.402;2023-03-13T07:48:33;99380.41;;;11.68;48.15
13869;BME280;7004;48.206;16.402;2023-03-13T07:50:59;99379.81;;;11.51;48.83
13869;BME280;7004;48.206;16.402;2023-03-13T07:53:26;99382.88;;;11.58;48.55
13869;BME280;7004;48.206;16.402;2023-03-13T07:56:05;99382.97;;;11.56;48.07
13869;BME280;7004;48.206;16.402;2023-03-13T07:58:35;99365.28;;;11.94;47.24
13869;BME280;7004;48.206;16.402;2023-03-13T08:01:12;99383.00;;;12.05;47.41
13869;BME280;7004;48.206;16.402;2023-03-13T08:03:39;99378.41;;;11.34;47.83
13869;BME280;7004;48.206;16.402;2023-03-13T08:06:14;99372.72;;;11.15;48.80
13869;BME280;7004;48.206;16.402;2023-03-13T08:08:42;99374.94;;;11.58;48.36
13869;BME280;7004;48.206;16.402;2023-03-13T08:11:17;99377.06;;;11.77;47.34
13869;BME280;7004;48.206;16.402;2023-03-13T08:13:44;99381.28;;;12.39;46.88
13869;BME280;7004;48.206;16.402;2023-03-13T08:16:14;99367.84;;;12.76;46.37
13869;BME280;7004;48.206;16.402;2023-03-13T08:18:43;99368.06;;;12.84;46.81
13869;BME280;7004;48.206;16.402;2023-03-13T08:21:14;99366.41;;;12.14;48.22
13869;BME280;7004;48.206;16.402;2023-03-13T08:23:41;99366.38;;;12.38;48.17
13869;BME280;7004;48.206;16.402;2023-03-13T08:26:12;99351.91;;;12.42;48.28
13869;BME280;7004;48.206;16.402;2023-03-13T08:28:44;99353.66;;;12.19;48.38
13869;BME280;7004;48.206;16.402;2023-03-13T08:31:24;99349.13;;;11.97;49.23
13869;BME280;7004;48.206;16.402;2023-03-13T08:33:51;99348.50;;;12.40;47.33
13869;BME280;7004;48.206;16.402;2023-03-13T08:36:27;99350.13;;;11.96;48.32
13869;BME280;7004;48.206;16.402;2023-03-13T08:38:56;99350.66;;;12.23;47.11
13869;BME280;7004;48.206;16.402;2023-03-13T08:41:26;99340.91;;;11.65;48.21
13869;BME280;7004;48.206;16.402;2023-03-13T08:43:57;99338.81;;;11.81;48.34
13869;BME280;7004;48.206;16.402;2023-03-13T08:46:24;99341.78;;;12.00;47.99
13869;BME280;7004;48.206;16.402;2023-03-13T08:48:52;99351.63;;;12.22;47.43
13869;BME280;7004;48.206;16.402;2023-03-13T08:51:24;99346.50;;;11.97;47.43
13869;BME280;7004;48.206;16.402;2023-03-13T08:53:51;99342.53;;;12.02;47.85
13869;BME280;7004;48.206;16.402;2023-03-13T08:56:21;99341.03;;;12.34;46.31
13869;BME280;7004;48.206;16.402;2023-03-13T08:58:53;99329.13;;;13.29;45.17
13869;BME280;7004;48.206;16.402;2023-03-13T09:01:22;99338.69;;;12.87;46.01
13869;BME280;7004;48.206;16.402;2023-03-13T09:03:48;99343.25;;;12.51;46.49
13869;BME280;7004;48.206;16.402;2023-03-13T09:06:15;99341.03;;;12.22;46.56
13869;BME280;7004;48.206;16.402;2023-03-13T09:08:42;99335.50;;;12.26;46.40
13869;BME280;7004;48.206;16.402;2023-03-13T09:11:14;99328.44;;;12.71;45.83
13869;BME280;7004;48.206;16.402;2023-03-13T09:13:44;99334.94;;;11.98;46.30
13869;BME280;7004;48.206;16.402;2023-03-13T09:16:15;99334.41;;;12.39;45.86
13869;BME280;7004;48.206;16.402;2023-03-13T09:18:42;99330.44;;;12.34;45.47
13869;BME280;7004;48.206;16.402;2023-03-13T09:21:30;99334.84;;;11.75;46.49
13869;BME280;7004;48.206;16.402;2023-03-13T09:23:57;99345.59;;;12.20;45.19
13869;BME280;7004;48.206;16.402;2023-03-13T09:26:25;99349.25;;;11.95;45.98
13869;BME280;7004;48.206;16.402;2023-03-13T09:28:51;99343.25;;;12.05;45.60
13869;BME280;7004;48.206;16.402;2023-03-13T09:31:24;99344.03;;;12.29;44.60
13869;BME280;7004;48.206;16.402;2023-03-13T09:33:51;99348.44;;;12.06;45.32
13869;BME280;7004;48.206;16.402;2023-03-13T09:36:19;99362.38;;;12.32;44.50
13869;BME280;7004;48.206;16.402;2023-03-13T09:38:45;99351.94;;;12.64;43.24
13869;BME280;7004;48.206;16.402;2023-03-13T09:41:25;99338.88;;;12.39;42.97
13869;BME280;7004;48.206;16.402;2023-03-13T09:44:07;99324.78;;;12.38;43.26
13869;BME280;7004;48.206;16.402;2023-03-13T09:46:43;99329.75;;;12.77;42.79
13869;BME280;7004;48.206;16.402;2023-03-13T09:49:30;99334.78;;;13.36;41.43
13869;BME280;7004;48.206;16.402;2023-03-13T09:52:24;99338.19;;;12.71;42.38
13869;BME280;7004;48.206;16.402;2023-03-13T09:55:21;99334.47;;;12.84;41.96
13869;BME280;7004;48.206;16.402;2023-03-13T10:00:57;99327.09;;;12.77;42.20
13869;BME280;7004;48.206;16.402;2023-03-13T10:03:42;99341.72;;;12.13;42.88
13869;BME280;7004;48.206;16.402;2023-03-13T10:06:19;99320.22;;;12.63;42.59
13869;BME280;7004;48.206;16.402;2023-03-13T10:08:45;99325.06;;;12.69;42.09
13869;BME280;7004;48.206;16.402;2023-03-13T10:14:11;99311.63;;;13.27;41.95
13869;BME280;7004;48.206;16.402;2023-03-13T10:16:55;99320.13;;;13.53;41.38
13869;BME280;7004;48.206;16.402;2023-03-13T10:19:33;99292.28;;;13.25;41.90
13869;BME280;7004;48.206;16.402;2023-03-13T10:22:18;99271.13;;;12.91;42.31
13869;BME280;7004;48.206;16.402;2023-03-13T10:27:19;99275.06;;;13.19;42.40
13869;BME280;7004;48.206;16.402;2023-03-13T10:29:45;99277.50;;;13.11;42.65
13869;BME280;7004;48.206;16.402;2023-03-13T10:32:16;99279.59;;;12.85;42.61
13869;BME280;7004;48.206;16.402;2023-03-13T10:34:59;99276.63;;;13.33;41.52
13869;BME280;7004;48.206;16.402;2023-03-13T10:37:29;99261.47;;;13.01;42.66
13869;BME280;7004;48.206;16.402;2023-03-13T10:40:13;99271.81;;;13.16;42.39
13869;BME280;7004;48.206;16.402;2023-03-13T10:42:44;99263.94;;;13.37;41.23
13869;BME280;7004;48.206;16.402;2023-03-13T10:45:16;99260.19;;;13.39;41.22
13869;BME280;7004;48.206;16.402;2023-03-13T10:47:43;99255.38;;;13.86;41.26
13869;BME280;7004;48.206;16.402;2023-03-13T10:50:20;99251.38;;;13.71;40.98
13869;BME280;7004;48.206;16.402;2023-03-13T10:52:48;99248.88;;;14.00;41.35
13869;BME280;7004;48.206;16.402;2023-03-13T10:55:24;99245.59;;;14.08;41.29
13869;BME280;7004;48.206;16.402;2023-03-13T10:57:58;99245.03;;;13.62;41.53
13869;BME280;7004;48.206;16.402;2023-03-13T11:00:37;99238.72;;;14.05;40.93
13869;BME280;7004;48.206;16.402;2023-03-13T11:03:15;99241.09;;;14.08;41.22
13869;BME280;7004;48.206;16.402;2023-03-13T11:05:44;99236.06;;;13.84;41.21
13869;BME280;7004;48.206;16.402;2023-03-13T11:08:25;99234.28;;;14.15;40.73
13869;BME280;7004;48.206;16.402;2023-03-13T11:11:18;99237.16;;;13.82;40.83
13869;BME280;7004;48.206;16.402;2023-03-13T11:13:45;99235.47;;;14.02;40.91
13869;BME280;7004;48.206;16.402;2023-03-13T11:16:30;99236.06;;;13.84;42.53
13869;BME280;7004;48.206;16.402;2023-03-13T11:27:27;99225.75;;;14.42;41.96
13869;BME280;7004;48.206;16.402;2023-03-13T11:30:38;99229.91;;;14.05;40.38
13869;BME280;7004;48.206;16.402;2023-03-13T11:36:01;99223.84;;;14.24;40.21
13869;BME280;7004;48.206;16.402;2023-03-13T11:38:53;99226.44;;;14.35;40.31
13869;BME280;7004;48.206;16.402;2023-03-13T11:52:23;99203.63;;;14.42;39.07
13869;BME280;7004;48.206;16.402;2023-03-13T12:00:24;99210.03;;;13.99;39.17
13869;BME280;7004;48.206;16.402;2023-03-13T12:05:25;99179.56;;;14.43;39.23
13869;BME280;7004;48.206;16.402;2023-03-13T12:08:11;99186.34;;;14.57;39.29
13869;BME280;7004;48.206;16.402;2023-03-13T12:13:36;99188.53;;;14.52;38.54
13869;BME280;7004;48.206;16.402;2023-03-13T12:16:19;99196.34;;;14.44;38.58
13869;BME280;7004;48.206;16.402;2023-03-13T12:18:48;99168.09;;;14.43;38.28
13869;BME280;7004;48.206;16.402;2023-03-13T12:21:44;99166.78;;;14.28;38.84
13869;BME280;7004;48.206;16.402;2023-03-13T12:24:35;99158.44;;;14.52;38.46
13869;BME280;7004;48.206;16.402;2023-03-13T12:27:34;99170.16;;;14.80;38.21
13869;BME280;7004;48.206;16.402;2023-03-13T12:33:13;99139.34;;;14.77;38.38
13869;BME280;7004;48.206;16.402;2023-03-13T12:35:50;99127.19;;;15.04;38.38
13869;BME280;7004;48.206;16.402;2023-03-13T12:38:33;99129.84;;;15.04;39.35
13869;BME280;7004;48.206;16.402;2023-03-13T12:41:23;99133.06;;;15.37;38.45
13869;BME280;7004;48.206;16.402;2023-03-13T12:43:52;99132.50;;;15.14;38.26
13869;BME280;7004;48.206;16.402;2023-03-13T12:46:52;99125.09;;;14.98;38.18
13869;BME280;7004;48.206;16.402;2023-03-13T13:03:58;99107.16;;;14.90;38.30
13869;BME280;7004;48.206;16.402;2023-03-13T13:06:28;99093.28;;;14.77;38.50
13869;BME280;7004;48.206;16.402;2023-03-13T13:11:49;99094.00;;;14.69;39.63
13869;BME280;7004;48.206;16.402;2023-03-13T13:19:52;99091.78;;;14.34;40.05
13869;BME280;7004;48.206;16.402;2023-03-13T13:32:56;99073.34;;;14.32;40.00
13869;BME280;7004;48.206;16.402;2023-03-13T13:35:41;99062.81;;;14.31;40.36
13869;BME280;7004;48.206;16.402;2023-03-13T13:43:48;99037.66;;;14.45;39.75
13869;BME280;7004;48.206;16.402;2023-03-13T13:46:30;99025.78;;;14.49;39.78
13869;BME280;7004;48.206;16.402;2023-03-13T13:51:35;99017.25;;;14.55;39.59
13869;BME280;7004;48.206;16.402;2023-03-13T13:56:57;99023.13;;;14.68;39.59
13869;BME280;7004;48.206;16.402;2023-03-13T13:59:35;99020.88;;;14.83;39.55
13869;BME280;7004;48.206;16.402;2023-03-13T14:05:05;99010.13;;;14.84;39.33
13869;BME280;7004;48.206;16.402;2023-03-13T14:07:47;99000.66;;;15.10;39.21
13869;BME280;7004;48.206;16.402;2023-03-13T14:10:43;99000.94;;;15.26;38.13
13869;BME280;7004;48.206;16.402;2023-03-13T14:13:20;98990.50;;;15.42;38.97
13869;BME280;7004;48.206;16.402;2023-03-13T14:15:51;98972.78;;;15.51;39.89
13869;BME280;7004;48.206;16.402;2023-03-13T14:18:23;98974.09;;;16.02;40.62
13869;BME280;7004;48.206;16.402;2023-03-13T14:21:05;98971.03;;;15.97;42.72
13869;BME280;7004;48.206;16.402;2023-03-13T14:23:40;98970.69;;;16.10;37.77
13869;BME280;7004;48.206;16.402;2023-03-13T14:26:21;98964.41;;;15.83;37.95
13869;BME280;7004;48.206;16.402;2023-03-13T14:29:00;98961.16;;;16.07;40.62
13869;BME280;7004;48.206;16.402;2023-03-13T14:31:35;98951.84;;;15.66;36.86
13869;BME280;7004;48.206;16.402;2023-03-13T14:34:08;98950.31;;;15.91;35.94
13869;BME280;7004;48.206;16.402;2023-03-13T14:36:55;98944.34;;;15.79;37.49
13869;BME280;7004;48.206;16.402;2023-03-13T14:39:43;98956.16;;;15.39;36.56
13869;BME280;7004;48.206;16.402;2023-03-13T14:42:17;98946.09;;;15.70;36.57
13869;BME280;7004;48.206;16.402;2023-03-13T14:44:46;98941.28;;;15.74;38.27
13869;BME280;7004;48.206;16.402;2023-03-13T14:47:26;98936.69;;;15.39;36.36
13869;BME280;7004;48.206;16.402;2023-03-13T14:50:11;98934.34;;;15.91;36.62
13869;BME280;7004;48.206;16.402;2023-03-13T14:52:46;98937.53;;;15.94;35.88
13869;BME280;7004;48.206;16.402;2023-03-13T14:57:59;98921.69;;;15.65;36.32
13869;BME280;7004;48.206;16.402;2023-03-13T15:00:42;98920.53;;;15.78;36.25
13869;BME280;7004;48.206;16.402;2023-03-13T15:08:23;98913.69;;;15.38;36.17
13869;BME280;7004;48.206;16.402;2023-03-13T15:10:49;98922.50;;;15.20;36.24
13869;BME280;7004;48.206;16.402;2023-03-13T15:15:49;98925.38;;;15.27;36.44
13869;BME280;7004;48.206;16.402;2023-03-13T15:18:23;98912.06;;;15.27;36.87
13869;BME280;7004;48.206;16.402;2023-03-13T15:20:56;98910.09;;;15.29;36.74
13869;BME280;7004;48.206;16.402;2023-03-13T15:23:23;98911.25;;;15.26;36.14